sensor_id;sensor_type;location;lat;lon;timestamp;P1;durP1;ratioP1;P2;durP2;ratioP2
19830;SDS011;10076;52.008;4.708;2022-10-16T00:00:38;3.67;;;0.90;;
19830;SDS011;10076;52.008;4.708;2022-10-16T00:03:05;2.58;;;1.10;;
19830;SDS011;10076;52.008;4.708;2022-10-16T00:05:31;1.77;;;0.85;;
19830;SDS011;10076;52.008;4.708;2022-10-16T00:07:57;2.00;;;0.98;;
19830;SDS011;10076;52.008;4.708;2022-10-16T00:10:22;2.17;;;1.00;;
19830;SDS011;10076;52.008;4.708;2022-10-16T00:12:47;1.67;;;1.00;;
19830;SDS011;10076;52.008;4.708;2022-10-16T00:15:13;3.22;;;1.00;;
19830;SDS011;10076;52.008;4.708;2022-10-16T00:17:39;0.98;;;0.80;;
19830;SDS011;10076;52.008;4.708;2022-10-16T00:20:04;1.58;;;1.05;;
19830;SDS011;10076;52.008;4.708;2022-10-16T00:22:30;1.23;;;1.00;;
19830;SDS011;10076;52.008;4.708;2022-10-16T00:24:55;1.77;;;1.17;;
19830;SDS011;10076;52.008;4.708;2022-10-16T00:27:20;1.73;;;0.95;;
19830;SDS011;10076;52.008;4.708;2022-10-16T00:29:49;2.90;;;1.30;;
19830;SDS011;10076;52.008;4.708;2022-10-16T00:32:15;3.95;;;1.20;;
19830;SDS011;10076;52.008;4.708;2022-10-16T00:34:41;0.95;;;0.80;;
19830;SDS011;10076;52.008;4.708;2022-10-16T00:37:06;2.90;;;1.52;;
19830;SDS011;10076;52.008;4.708;2022-10-16T00:39:31;1.40;;;1.00;;
19830;SDS011;10076;52.008;4.708;2022-10-16T00:41:57;1.30;;;0.85;;
19830;SDS011;10076;52.008;4.708;2022-10-16T00:47:19;3.25;;;1.08;;
19830;SDS011;10076;52.008;4.708;2022-10-16T00:49:47;1.58;;;1.10;;
19830;SDS011;10076;52.008;4.708;2022-10-16T00:52:16;2.63;;;1.08;;
19830;SDS011;10076;52.008;4.708;2022-10-16T00:54:42;2.97;;;1.10;;
19830;SDS011;10076;52.008;4.708;2022-10-16T00:57:09;2.70;;;1.48;;
19830;SDS011;10076;52.008;4.708;2022-10-16T00:59:36;2.00;;;1.30;;
19830;SDS011;10076;52.008;4.708;2022-10-16T01:02:03;4.30;;;1.50;;
19830;SDS011;10076;52.008;4.708;2022-10-16T01:04:35;2.15;;;1.10;;
19830;SDS011;10076;52.008;4.708;2022-10-16T01:07:06;1.98;;;0.93;;
19830;SDS011;10076;52.008;4.708;2022-10-16T01:15:36;1.52;;;1.30;;
19830;SDS011;10076;52.008;4.708;2022-10-16T01:18:08;2.28;;;1.00;;
19830;SDS011;10076;52.008;4.708;2022-10-16T01:20:47;2.58;;;1.20;;
19830;SDS011;10076;52.008;4.708;2022-10-16T01:23:21;1.75;;;1.20;;
19830;SDS011;10076;52.008;4.708;2022-10-16T01:28:57;5.57;;;1.15;;
19830;SDS011;10076;52.008;4.708;2022-10-16T01:31:26;2.67;;;1.15;;
19830;SDS011;10076;52.008;4.708;2022-10-16T01:33:59;1.98;;;1.10;;
19830;SDS011;10076;52.008;4.708;2022-10-16T01:36:39;1.58;;;1.00;;
19830;SDS011;10076;52.008;4.708;2022-10-16T01:39:08;4.03;;;1.38;;
19830;SDS011;10076;52.008;4.708;2022-10-16T01:41:37;2.97;;;1.50;;
19830;SDS011;10076;52.008;4.708;2022-10-16T01:44:08;4.90;;;1.30;;
19830;SDS011;10076;52.008;4.708;2022-10-16T01:46:39;1.73;;;0.90;;
19830;SDS011;10076;52.008;4.708;2022-10-16T01:49:07;2.42;;;1.20;;
19830;SDS011;10076;52.008;4.708;2022-10-16T01:51:35;2.88;;;1.17;;
19830;SDS011;10076;52.008;4.708;2022-10-16T01:54:02;1.80;;;1.33;;
19830;SDS011;10076;52.008;4.708;2022-10-16T01:56:31;3.20;;;1.13;;
19830;SDS011;10076;52.008;4.708;2022-10-16T01:59:01;3.42;;;1.33;;
19830;SDS011;10076;52.008;4.708;2022-10-16T02:01:31;2.63;;;1.13;;
19830;SDS011;10076;52.008;4.708;2022-10-16T02:04:00;1.95;;;1.40;;
19830;SDS011;10076;52.008;4.708;2022-10-16T02:06:37;2.03;;;1.25;;
19830;SDS011;10076;52.008;4.708;2022-10-16T02:09:03;3.05;;;1.30;;
19830;SDS011;10076;52.008;4.708;2022-10-16T02:11:28;3.85;;;1.63;;
19830;SDS011;10076;52.008;4.708;2022-10-16T02:14:11;1.58;;;1.20;;
19830;SDS011;10076;52.008;4.708;2022-10-16T02:16:38;2.15;;;1.38;;
19830;SDS011;10076;52.008;4.708;2022-10-16T02:19:08;3.67;;;1.67;;
19830;SDS011;10076;52.008;4.708;2022-10-16T02:24:14;3.07;;;1.40;;
19830;SDS011;10076;52.008;4.708;2022-10-16T02:27:06;5.07;;;1.60;;
19830;SDS011;10076;52.008;4.708;2022-10-16T02:29:38;2.03;;;1.35;;
19830;SDS011;10076;52.008;4.708;2022-10-16T02:32:09;1.63;;;1.23;;
19830;SDS011;10076;52.008;4.708;2022-10-16T02:34:37;1.23;;;1.13;;
19830;SDS011;10076;52.008;4.708;2022-10-16T02:37:05;3.25;;;1.40;;
19830;SDS011;10076;52.008;4.708;2022-10-16T02:39:31;3.13;;;1.30;;
19830;SDS011;10076;52.008;4.708;2022-10-16T02:41:58;1.75;;;1.30;;
19830;SDS011;10076;52.008;4.708;2022-10-16T02:44:23;2.60;;;1.35;;
19830;SDS011;10076;52.008;4.708;2022-10-16T02:46:49;2.10;;;1.40;;
19830;SDS011;10076;52.008;4.708;2022-10-16T02:49:14;1.58;;;1.20;;
19830;SDS011;10076;52.008;4.708;2022-10-16T02:51:40;2.15;;;1.25;;
19830;SDS011;10076;52.008;4.708;2022-10-16T02:54:05;1.77;;;1.10;;
19830;SDS011;10076;52.008;4.708;2022-10-16T02:56:30;1.42;;;1.10;;
19830;SDS011;10076;52.008;4.708;2022-10-16T02:58:56;3.05;;;1.30;;
19830;SDS011;10076;52.008;4.708;2022-10-16T03:01:22;2.13;;;1.10;;
19830;SDS011;10076;52.008;4.708;2022-10-16T03:03:48;2.03;;;1.00;;
19830;SDS011;10076;52.008;4.708;2022-10-16T03:06:13;1.67;;;1.02;;
19830;SDS011;10076;52.008;4.708;2022-10-16T03:08:38;1.30;;;1.20;;
19830;SDS011;10076;52.008;4.708;2022-10-16T03:11:04;2.03;;;1.10;;
19830;SDS011;10076;52.008;4.708;2022-10-16T03:13:29;1.50;;;1.10;;
19830;SDS011;10076;52.008;4.708;2022-10-16T03:15:54;2.40;;;0.97;;
19830;SDS011;10076;52.008;4.708;2022-10-16T03:18:20;1.77;;;1.20;;
19830;SDS011;10076;52.008;4.708;2022-10-16T03:20:45;1.30;;;1.20;;
19830;SDS011;10076;52.008;4.708;2022-10-16T03:23:11;1.33;;;0.90;;
19830;SDS011;10076;52.008;4.708;2022-10-16T03:25:36;1.70;;;0.80;;
19830;SDS011;10076;52.008;4.708;2022-10-16T03:28:02;1.70;;;0.95;;
19830;SDS011;10076;52.008;4.708;2022-10-16T03:30:28;1.87;;;1.20;;
19830;SDS011;10076;52.008;4.708;2022-10-16T03:32:53;1.50;;;1.00;;
19830;SDS011;10076;52.008;4.708;2022-10-16T03:35:22;1.25;;;1.00;;
19830;SDS011;10076;52.008;4.708;2022-10-16T03:37:48;1.23;;;0.97;;
19830;SDS011;10076;52.008;4.708;2022-10-16T03:40:14;1.20;;;1.00;;
19830;SDS011;10076;52.008;4.708;2022-10-16T03:42:40;0.90;;;0.90;;
19830;SDS011;10076;52.008;4.708;2022-10-16T03:45:07;3.47;;;1.25;;
19830;SDS011;10076;52.008;4.708;2022-10-16T03:47:33;1.57;;;1.03;;
19830;SDS011;10076;52.008;4.708;2022-10-16T03:49:58;1.15;;;0.77;;
19830;SDS011;10076;52.008;4.708;2022-10-16T03:52:24;2.80;;;1.02;;
19830;SDS011;10076;52.008;4.708;2022-10-16T03:54:50;2.13;;;1.15;;
19830;SDS011;10076;52.008;4.708;2022-10-16T03:57:15;1.40;;;1.07;;
19830;SDS011;10076;52.008;4.708;2022-10-16T03:59:40;2.03;;;0.80;;
19830;SDS011;10076;52.008;4.708;2022-10-16T04:02:05;3.07;;;1.00;;
19830;SDS011;10076;52.008;4.708;2022-10-16T04:04:31;1.48;;;1.05;;
19830;SDS011;10076;52.008;4.708;2022-10-16T04:06:56;2.35;;;1.15;;
19830;SDS011;10076;52.008;4.708;2022-10-16T04:09:21;3.73;;;1.10;;
19830;SDS011;10076;52.008;4.708;2022-10-16T04:11:47;1.98;;;1.10;;
19830;SDS011;10076;52.008;4.708;2022-10-16T04:14:12;3.75;;;1.10;;
19830;SDS011;10076;52.008;4.708;2022-10-16T04:16:37;1.00;;;0.77;;
19830;SDS011;10076;52.008;4.708;2022-10-16T04:19:03;8.20;;;1.20;;
19830;SDS011;10076;52.008;4.708;2022-10-16T04:21:28;6.03;;;2.37;;
19830;SDS011;10076;52.008;4.708;2022-10-16T04:23:53;1.57;;;0.90;;
19830;SDS011;10076;52.008;4.708;2022-10-16T04:26:19;1.50;;;1.00;;
19830;SDS011;10076;52.008;4.708;2022-10-16T04:28:44;4.97;;;1.13;;
19830;SDS011;10076;52.008;4.708;2022-10-16T04:31:09;1.55;;;1.10;;
19830;SDS011;10076;52.008;4.708;2022-10-16T04:33:34;3.33;;;1.10;;
19830;SDS011;10076;52.008;4.708;2022-10-16T04:36:00;4.13;;;0.93;;
19830;SDS011;10076;52.008;4.708;2022-10-16T04:38:26;0.97;;;0.90;;
19830;SDS011;10076;52.008;4.708;2022-10-16T04:40:52;1.48;;;1.27;;
19830;SDS011;10076;52.008;4.708;2022-10-16T04:43:17;1.50;;;1.00;;
19830;SDS011;10076;52.008;4.708;2022-10-16T04:45:43;1.53;;;1.10;;
19830;SDS011;10076;52.008;4.708;2022-10-16T04:48:08;2.65;;;1.10;;
19830;SDS011;10076;52.008;4.708;2022-10-16T04:50:33;1.25;;;1.08;;
19830;SDS011;10076;52.008;4.708;2022-10-16T04:52:59;1.13;;;0.90;;
19830;SDS011;10076;52.008;4.708;2022-10-16T04:55:25;1.83;;;1.20;;
19830;SDS011;10076;52.008;4.708;2022-10-16T04:57:50;3.08;;;1.20;;
19830;SDS011;10076;52.008;4.708;2022-10-16T05:00:15;2.30;;;1.13;;
19830;SDS011;10076;52.008;4.708;2022-10-16T05:02:41;3.05;;;1.13;;
19830;SDS011;10076;52.008;4.708;2022-10-16T05:05:06;2.05;;;0.88;;
19830;SDS011;10076;52.008;4.708;2022-10-16T05:07:32;3.38;;;1.00;;
19830;SDS011;10076;52.008;4.708;2022-10-16T05:09:57;3.07;;;0.80;;
19830;SDS011;10076;52.008;4.708;2022-10-16T05:12:22;1.50;;;1.25;;
19830;SDS011;10076;52.008;4.708;2022-10-16T05:14:48;3.15;;;1.25;;
19830;SDS011;10076;52.008;4.708;2022-10-16T05:17:13;1.50;;;0.97;;
19830;SDS011;10076;52.008;4.708;2022-10-16T05:19:38;3.78;;;1.20;;
19830;SDS011;10076;52.008;4.708;2022-10-16T05:22:04;1.00;;;0.90;;
19830;SDS011;10076;52.008;4.708;2022-10-16T05:24:29;5.30;;;1.15;;
19830;SDS011;10076;52.008;4.708;2022-10-16T05:26:54;4.50;;;1.10;;
19830;SDS011;10076;52.008;4.708;2022-10-16T05:29:20;2.05;;;1.15;;
19830;SDS011;10076;52.008;4.708;2022-10-16T05:31:45;2.47;;;1.02;;
19830;SDS011;10076;52.008;4.708;2022-10-16T05:34:10;3.78;;;0.95;;
19830;SDS011;10076;52.008;4.708;2022-10-16T05:36:36;2.87;;;1.17;;
19830;SDS011;10076;52.008;4.708;2022-10-16T05:39:01;3.60;;;1.43;;
19830;SDS011;10076;52.008;4.708;2022-10-16T05:41:27;5.13;;;1.42;;
19830;SDS011;10076;52.008;4.708;2022-10-16T05:43:52;1.90;;;1.20;;
19830;SDS011;10076;52.008;4.708;2022-10-16T05:46:18;1.58;;;1.20;;
19830;SDS011;10076;52.008;4.708;2022-10-16T05:48:43;1.40;;;1.20;;
19830;SDS011;10076;52.008;4.708;2022-10-16T05:51:11;2.47;;;1.17;;
19830;SDS011;10076;52.008;4.708;2022-10-16T05:53:38;3.88;;;1.30;;
19830;SDS011;10076;52.008;4.708;2022-10-16T05:56:04;2.55;;;1.10;;
19830;SDS011;10076;52.008;4.708;2022-10-16T05:58:31;3.30;;;1.20;;
19830;SDS011;10076;52.008;4.708;2022-10-16T06:01:07;1.20;;;1.00;;
19830;SDS011;10076;52.008;4.708;2022-10-16T06:03:36;2.77;;;1.40;;
19830;SDS011;10076;52.008;4.708;2022-10-16T06:06:08;2.13;;;1.00;;
19830;SDS011;10076;52.008;4.708;2022-10-16T06:08:38;2.72;;;1.15;;
19830;SDS011;10076;52.008;4.708;2022-10-16T06:11:04;3.67;;;0.90;;
19830;SDS011;10076;52.008;4.708;2022-10-16T06:13:31;2.40;;;1.10;;
19830;SDS011;10076;52.008;4.708;2022-10-16T06:15:57;2.63;;;1.17;;
19830;SDS011;10076;52.008;4.708;2022-10-16T06:18:24;3.95;;;1.10;;
19830;SDS011;10076;52.008;4.708;2022-10-16T06:20:50;1.30;;;1.10;;
19830;SDS011;10076;52.008;4.708;2022-10-16T06:23:15;1.90;;;1.10;;
19830;SDS011;10076;52.008;4.708;2022-10-16T06:25:40;1.70;;;1.00;;
19830;SDS011;10076;52.008;4.708;2022-10-16T06:28:06;2.23;;;1.00;;
19830;SDS011;10076;52.008;4.708;2022-10-16T06:30:31;1.40;;;0.87;;
19830;SDS011;10076;52.008;4.708;2022-10-16T06:32:56;1.95;;;0.80;;
19830;SDS011;10076;52.008;4.708;2022-10-16T06:35:22;3.17;;;0.60;;
19830;SDS011;10076;52.008;4.708;2022-10-16T06:37:47;1.83;;;0.80;;
19830;SDS011;10076;52.008;4.708;2022-10-16T06:40:12;1.90;;;0.60;;
19830;SDS011;10076;52.008;4.708;2022-10-16T06:42:39;3.33;;;1.08;;
19830;SDS011;10076;52.008;4.708;2022-10-16T06:45:05;1.17;;;0.70;;
19830;SDS011;10076;52.008;4.708;2022-10-16T06:47:30;2.90;;;1.10;;
19830;SDS011;10076;52.008;4.708;2022-10-16T06:49:55;2.35;;;0.70;;
19830;SDS011;10076;52.008;4.708;2022-10-16T06:52:21;1.20;;;0.60;;
19830;SDS011;10076;52.008;4.708;2022-10-16T06:54:46;2.38;;;0.90;;
19830;SDS011;10076;52.008;4.708;2022-10-16T06:57:11;1.23;;;0.53;;
19830;SDS011;10076;52.008;4.708;2022-10-16T06:59:37;1.33;;;1.05;;
19830;SDS011;10076;52.008;4.708;2022-10-16T07:02:02;2.57;;;1.00;;
19830;SDS011;10076;52.008;4.708;2022-10-16T07:04:27;3.08;;;0.90;;
19830;SDS011;10076;52.008;4.708;2022-10-16T07:06:52;4.33;;;1.33;;
19830;SDS011;10076;52.008;4.708;2022-10-16T07:09:18;2.70;;;1.38;;
19830;SDS011;10076;52.008;4.708;2022-10-16T07:11:43;1.73;;;1.00;;
19830;SDS011;10076;52.008;4.708;2022-10-16T07:14:15;2.28;;;0.90;;
19830;SDS011;10076;52.008;4.708;2022-10-16T07:16:42;0.90;;;0.90;;
19830;SDS011;10076;52.008;4.708;2022-10-16T07:19:07;1.70;;;0.80;;
19830;SDS011;10076;52.008;4.708;2022-10-16T07:21:33;1.55;;;1.00;;
19830;SDS011;10076;52.008;4.708;2022-10-16T07:24:00;3.30;;;0.90;;
19830;SDS011;10076;52.008;4.708;2022-10-16T07:26:27;5.82;;;0.93;;
19830;SDS011;10076;52.008;4.708;2022-10-16T07:28:53;4.03;;;1.08;;
19830;SDS011;10076;52.008;4.708;2022-10-16T07:31:21;1.40;;;1.15;;
19830;SDS011;10076;52.008;4.708;2022-10-16T07:33:47;3.15;;;1.30;;
19830;SDS011;10076;52.008;4.708;2022-10-16T07:36:14;1.17;;;0.95;;
19830;SDS011;10076;52.008;4.708;2022-10-16T07:38:40;2.85;;;1.20;;
19830;SDS011;10076;52.008;4.708;2022-10-16T07:41:07;1.48;;;1.15;;
19830;SDS011;10076;52.008;4.708;2022-10-16T07:43:36;3.05;;;1.10;;
19830;SDS011;10076;52.008;4.708;2022-10-16T07:46:01;1.85;;;1.20;;
19830;SDS011;10076;52.008;4.708;2022-10-16T07:48:28;5.05;;;2.90;;
19830;SDS011;10076;52.008;4.708;2022-10-16T07:50:58;1.25;;;0.95;;
19830;SDS011;10076;52.008;4.708;2022-10-16T07:53:27;3.00;;;0.88;;
19830;SDS011;10076;52.008;4.708;2022-10-16T07:55:59;3.03;;;1.10;;
19830;SDS011;10076;52.008;4.708;2022-10-16T07:58:27;2.83;;;1.52;;
19830;SDS011;10076;52.008;4.708;2022-10-16T08:00:52;1.73;;;1.13;;
19830;SDS011;10076;52.008;4.708;2022-10-16T08:03:18;2.83;;;0.90;;
19830;SDS011;10076;52.008;4.708;2022-10-16T08:05:43;3.13;;;1.10;;
19830;SDS011;10076;52.008;4.708;2022-10-16T08:08:11;2.17;;;1.23;;
19830;SDS011;10076;52.008;4.708;2022-10-16T08:10:38;3.53;;;1.20;;
19830;SDS011;10076;52.008;4.708;2022-10-16T08:13:03;2.35;;;1.05;;
19830;SDS011;10076;52.008;4.708;2022-10-16T08:15:29;3.63;;;1.10;;
19830;SDS011;10076;52.008;4.708;2022-10-16T08:17:58;2.08;;;1.00;;
19830;SDS011;10076;52.008;4.708;2022-10-16T08:20:25;2.97;;;1.10;;
19830;SDS011;10076;52.008;4.708;2022-10-16T08:22:51;4.20;;;1.83;;
19830;SDS011;10076;52.008;4.708;2022-10-16T08:25:16;2.17;;;1.00;;
19830;SDS011;10076;52.008;4.708;2022-10-16T08:27:41;1.75;;;1.08;;
19830;SDS011;10076;52.008;4.708;2022-10-16T08:30:07;2.30;;;1.17;;
19830;SDS011;10076;52.008;4.708;2022-10-16T08:32:33;3.90;;;0.90;;
19830;SDS011;10076;52.008;4.708;2022-10-16T08:34:58;2.72;;;0.88;;
19830;SDS011;10076;52.008;4.708;2022-10-16T08:37:23;1.58;;;0.90;;
19830;SDS011;10076;52.008;4.708;2022-10-16T08:39:49;3.65;;;1.40;;
19830;SDS011;10076;52.008;4.708;2022-10-16T08:42:18;1.15;;;0.90;;
19830;SDS011;10076;52.008;4.708;2022-10-16T08:50:29;3.65;;;0.98;;
19830;SDS011;10076;52.008;4.708;2022-10-16T08:52:59;2.25;;;0.80;;
19830;SDS011;10076;52.008;4.708;2022-10-16T08:58:09;3.38;;;0.80;;
19830;SDS011;10076;52.008;4.708;2022-10-16T09:00:36;5.75;;;0.93;;
19830;SDS011;10076;52.008;4.708;2022-10-16T09:03:23;6.60;;;1.30;;
19830;SDS011;10076;52.008;4.708;2022-10-16T09:08:41;3.08;;;0.98;;
19830;SDS011;10076;52.008;4.708;2022-10-16T09:11:31;7.82;;;1.25;;
19830;SDS011;10076;52.008;4.708;2022-10-16T09:16:52;3.28;;;1.33;;
19830;SDS011;10076;52.008;4.708;2022-10-16T09:19:25;4.88;;;1.50;;
19830;SDS011;10076;52.008;4.708;2022-10-16T09:21:59;3.40;;;1.33;;
19830;SDS011;10076;52.008;4.708;2022-10-16T09:24:34;1.90;;;1.02;;
19830;SDS011;10076;52.008;4.708;2022-10-16T09:27:00;3.05;;;1.10;;
19830;SDS011;10076;52.008;4.708;2022-10-16T09:29:25;3.53;;;0.95;;
19830;SDS011;10076;52.008;4.708;2022-10-16T09:31:50;3.65;;;1.02;;
19830;SDS011;10076;52.008;4.708;2022-10-16T09:34:24;3.67;;;1.45;;
19830;SDS011;10076;52.008;4.708;2022-10-16T09:36:51;2.47;;;1.00;;
19830;SDS011;10076;52.008;4.708;2022-10-16T09:39:17;4.45;;;1.10;;
19830;SDS011;10076;52.008;4.708;2022-10-16T09:41:43;3.63;;;1.15;;
19830;SDS011;10076;52.008;4.708;2022-10-16T09:44:21;5.03;;;1.00;;
19830;SDS011;10076;52.008;4.708;2022-10-16T09:47:05;3.05;;;1.00;;
19830;SDS011;10076;52.008;4.708;2022-10-16T09:52:22;1.90;;;0.85;;
19830;SDS011;10076;52.008;4.708;2022-10-16T09:54:49;2.50;;;1.00;;
19830;SDS011;10076;52.008;4.708;2022-10-16T09:57:16;2.25;;;1.27;;
19830;SDS011;10076;52.008;4.708;2022-10-16T09:59:59;2.67;;;1.20;;
19830;SDS011;10076;52.008;4.708;2022-10-16T10:02:31;4.28;;;1.23;;
19830;SDS011;10076;52.008;4.708;2022-10-16T10:05:00;2.78;;;1.30;;
19830;SDS011;10076;52.008;4.708;2022-10-16T10:07:28;6.13;;;1.42;;
19830;SDS011;10076;52.008;4.708;2022-10-16T10:10:00;5.25;;;1.25;;
19830;SDS011;10076;52.008;4.708;2022-10-16T10:12:28;4.63;;;1.27;;
19830;SDS011;10076;52.008;4.708;2022-10-16T10:14:57;4.43;;;1.63;;
19830;SDS011;10076;52.008;4.708;2022-10-16T10:17:29;2.45;;;1.40;;
19830;SDS011;10076;52.008;4.708;2022-10-16T10:19:58;3.72;;;1.45;;
19830;SDS011;10076;52.008;4.708;2022-10-16T10:22:46;4.22;;;1.10;;
19830;SDS011;10076;52.008;4.708;2022-10-16T10:35:44;2.03;;;1.00;;
19830;SDS011;10076;52.008;4.708;2022-10-16T10:40:44;3.67;;;1.40;;
19830;SDS011;10076;52.008;4.708;2022-10-16T10:45:54;4.85;;;1.75;;
19830;SDS011;10076;52.008;4.708;2022-10-16T10:51:38;6.00;;;2.30;;
19830;SDS011;10076;52.008;4.708;2022-10-16T11:00:31;5.25;;;1.70;;
19830;SDS011;10076;52.008;4.708;2022-10-16T11:06:19;2.28;;;1.15;;
19830;SDS011;10076;52.008;4.708;2022-10-16T11:11:44;6.50;;;1.33;;
19830;SDS011;10076;52.008;4.708;2022-10-16T11:14:16;4.70;;;1.20;;
19830;SDS011;10076;52.008;4.708;2022-10-16T11:16:51;2.80;;;1.30;;
19830;SDS011;10076;52.008;4.708;2022-10-16T11:27:44;4.13;;;1.20;;
19830;SDS011;10076;52.008;4.708;2022-10-16T11:30:20;0.80;;;0.60;;
19830;SDS011;10076;52.008;4.708;2022-10-16T11:33:00;5.53;;;1.23;;
19830;SDS011;10076;52.008;4.708;2022-10-16T11:35:38;2.80;;;0.75;;
19830;SDS011;10076;52.008;4.708;2022-10-16T11:38:22;3.72;;;0.95;;
19830;SDS011;10076;52.008;4.708;2022-10-16T11:40:56;2.15;;;1.00;;
19830;SDS011;10076;52.008;4.708;2022-10-16T11:43:28;4.57;;;1.20;;
19830;SDS011;10076;52.008;4.708;2022-10-16T11:46:03;3.95;;;1.23;;
19830;SDS011;10076;52.008;4.708;2022-10-16T11:48:42;3.55;;;0.80;;
19830;SDS011;10076;52.008;4.708;2022-10-16T11:51:39;3.55;;;1.38;;
19830;SDS011;10076;52.008;4.708;2022-10-16T11:54:19;7.15;;;1.58;;
19830;SDS011;10076;52.008;4.708;2022-10-16T11:56:50;4.10;;;0.90;;
19830;SDS011;10076;52.008;4.708;2022-10-16T11:59:21;3.20;;;1.08;;
19830;SDS011;10076;52.008;4.708;2022-10-16T12:02:16;4.35;;;0.93;;
19830;SDS011;10076;52.008;4.708;2022-10-16T12:04:55;3.45;;;1.00;;
19830;SDS011;10076;52.008;4.708;2022-10-16T12:07:27;4.25;;;1.38;;
19830;SDS011;10076;52.008;4.708;2022-10-16T12:12:46;3.15;;;0.95;;
19830;SDS011;10076;52.008;4.708;2022-10-16T12:15:18;4.15;;;0.80;;
19830;SDS011;10076;52.008;4.708;2022-10-16T12:17:49;3.60;;;0.90;;
19830;SDS011;10076;52.008;4.708;2022-10-16T12:20:20;3.20;;;1.08;;
19830;SDS011;10076;52.008;4.708;2022-10-16T12:25:37;3.50;;;0.63;;
19830;SDS011;10076;52.008;4.708;2022-10-16T12:28:18;3.92;;;1.10;;
19830;SDS011;10076;52.008;4.708;2022-10-16T12:30:53;1.27;;;0.63;;
19830;SDS011;10076;52.008;4.708;2022-10-16T12:36:33;2.58;;;0.82;;
19830;SDS011;10076;52.008;4.708;2022-10-16T12:38:59;3.38;;;1.17;;
19830;SDS011;10076;52.008;4.708;2022-10-16T12:41:27;4.00;;;0.90;;
19830;SDS011;10076;52.008;4.708;2022-10-16T12:43:57;3.60;;;1.00;;
19830;SDS011;10076;52.008;4.708;2022-10-16T12:49:04;6.10;;;0.85;;
19830;SDS011;10076;52.008;4.708;2022-10-16T12:51:50;2.47;;;0.80;;
19830;SDS011;10076;52.008;4.708;2022-10-16T12:59:53;1.30;;;0.50;;
19830;SDS011;10076;52.008;4.708;2022-10-16T13:15:41;4.72;;;0.98;;
19830;SDS011;10076;52.008;4.708;2022-10-16T13:23:50;5.20;;;1.27;;
19830;SDS011;10076;52.008;4.708;2022-10-16T13:26:32;3.85;;;0.85;;
19830;SDS011;10076;52.008;4.708;2022-10-16T13:28:59;3.55;;;0.77;;
19830;SDS011;10076;52.008;4.708;2022-10-16T13:31:26;3.00;;;0.82;;
19830;SDS011;10076;52.008;4.708;2022-10-16T13:33:54;2.00;;;0.70;;
19830;SDS011;10076;52.008;4.708;2022-10-16T13:36:27;3.40;;;1.15;;
19830;SDS011;10076;52.008;4.708;2022-10-16T13:39:00;4.72;;;1.00;;
19830;SDS011;10076;52.008;4.708;2022-10-16T13:41:31;4.78;;;1.35;;
19830;SDS011;10076;52.008;4.708;2022-10-16T13:43:57;3.95;;;0.88;;
19830;SDS011;10076;52.008;4.708;2022-10-16T13:46:23;4.55;;;1.20;;
19830;SDS011;10076;52.008;4.708;2022-10-16T13:51:28;5.28;;;1.00;;
19830;SDS011;10076;52.008;4.708;2022-10-16T13:53:55;4.78;;;0.90;;
19830;SDS011;10076;52.008;4.708;2022-10-16T13:56:22;6.90;;;1.25;;
19830;SDS011;10076;52.008;4.708;2022-10-16T13:59:04;2.88;;;0.90;;
19830;SDS011;10076;52.008;4.708;2022-10-16T14:01:47;4.43;;;0.70;;
19830;SDS011;10076;52.008;4.708;2022-10-16T14:04:15;9.88;;;1.00;;
19830;SDS011;10076;52.008;4.708;2022-10-16T14:06:41;4.75;;;1.02;;
19830;SDS011;10076;52.008;4.708;2022-10-16T14:09:14;4.90;;;0.90;;
19830;SDS011;10076;52.008;4.708;2022-10-16T14:11:51;3.28;;;0.90;;
19830;SDS011;10076;52.008;4.708;2022-10-16T14:14:19;2.03;;;0.93;;
19830;SDS011;10076;52.008;4.708;2022-10-16T14:16:45;5.28;;;1.15;;
19830;SDS011;10076;52.008;4.708;2022-10-16T14:19:29;2.28;;;1.38;;
19830;SDS011;10076;52.008;4.708;2022-10-16T14:21:55;2.92;;;0.82;;
19830;SDS011;10076;52.008;4.708;2022-10-16T14:24:24;3.60;;;1.27;;
19830;SDS011;10076;52.008;4.708;2022-10-16T14:26:50;3.55;;;1.00;;
19830;SDS011;10076;52.008;4.708;2022-10-16T14:29:18;2.63;;;0.80;;
19830;SDS011;10076;52.008;4.708;2022-10-16T14:32:00;3.58;;;1.10;;
19830;SDS011;10076;52.008;4.708;2022-10-16T14:34:31;1.88;;;0.70;;
19830;SDS011;10076;52.008;4.708;2022-10-16T14:37:18;3.72;;;1.17;;
19830;SDS011;10076;52.008;4.708;2022-10-16T14:39:48;2.03;;;1.10;;
19830;SDS011;10076;52.008;4.708;2022-10-16T14:42:16;2.55;;;1.00;;
19830;SDS011;10076;52.008;4.708;2022-10-16T14:44:44;5.72;;;0.80;;
19830;SDS011;10076;52.008;4.708;2022-10-16T14:47:13;3.92;;;1.27;;
19830;SDS011;10076;52.008;4.708;2022-10-16T14:49:41;4.15;;;1.20;;
19830;SDS011;10076;52.008;4.708;2022-10-16T14:52:10;5.03;;;0.80;;
19830;SDS011;10076;52.008;4.708;2022-10-16T14:54:37;4.57;;;0.95;;
19830;SDS011;10076;52.008;4.708;2022-10-16T14:57:02;3.47;;;1.00;;
19830;SDS011;10076;52.008;4.708;2022-10-16T14:59:35;4.07;;;0.80;;
19830;SDS011;10076;52.008;4.708;2022-10-16T15:02:46;3.53;;;0.90;;
19830;SDS011;10076;52.008;4.708;2022-10-16T15:04:56;5.00;;;1.05;;
19830;SDS011;10076;52.008;4.708;2022-10-16T15:07:22;6.40;;;1.10;;
19830;SDS011;10076;52.008;4.708;2022-10-16T15:09:48;3.25;;;1.00;;
19830;SDS011;10076;52.008;4.708;2022-10-16T15:12:13;6.00;;;0.77;;
19830;SDS011;10076;52.008;4.708;2022-10-16T15:14:38;2.55;;;1.17;;
19830;SDS011;10076;52.008;4.708;2022-10-16T15:17:04;1.83;;;0.85;;
19830;SDS011;10076;52.008;4.708;2022-10-16T15:19:29;6.13;;;1.00;;
19830;SDS011;10076;52.008;4.708;2022-10-16T15:21:55;4.80;;;0.93;;
19830;SDS011;10076;52.008;4.708;2022-10-16T15:24:20;2.65;;;0.98;;
19830;SDS011;10076;52.008;4.708;2022-10-16T15:26:45;3.65;;;1.33;;
19830;SDS011;10076;52.008;4.708;2022-10-16T15:29:11;4.18;;;1.35;;
19830;SDS011;10076;52.008;4.708;2022-10-16T15:31:37;4.10;;;1.13;;
19830;SDS011;10076;52.008;4.708;2022-10-16T15:34:04;2.92;;;1.30;;
19830;SDS011;10076;52.008;4.708;2022-10-16T15:36:34;3.65;;;1.48;;
19830;SDS011;10076;52.008;4.708;2022-10-16T15:39:19;3.10;;;1.30;;
19830;SDS011;10076;52.008;4.708;2022-10-16T15:41:46;2.50;;;0.90;;
19830;SDS011;10076;52.008;4.708;2022-10-16T15:44:18;1.85;;;0.90;;
19830;SDS011;10076;52.008;4.708;2022-10-16T15:46:45;2.03;;;1.10;;
19830;SDS011;10076;52.008;4.708;2022-10-16T15:49:10;2.75;;;1.25;;
19830;SDS011;10076;52.008;4.708;2022-10-16T15:51:40;1.98;;;1.00;;
19830;SDS011;10076;52.008;4.708;2022-10-16T15:54:06;5.82;;;1.00;;
19830;SDS011;10076;52.008;4.708;2022-10-16T15:56:32;4.90;;;0.75;;
19830;SDS011;10076;52.008;4.708;2022-10-16T15:58:58;4.32;;;1.20;;
19830;SDS011;10076;52.008;4.708;2022-10-16T16:01:24;5.28;;;1.33;;
19830;SDS011;10076;52.008;4.708;2022-10-16T16:03:54;3.65;;;1.02;;
19830;SDS011;10076;52.008;4.708;2022-10-16T16:06:19;2.80;;;1.35;;
19830;SDS011;10076;52.008;4.708;2022-10-16T16:08:45;3.97;;;1.30;;
19830;SDS011;10076;52.008;4.708;2022-10-16T16:11:11;4.45;;;1.40;;
19830;SDS011;10076;52.008;4.708;2022-10-16T16:13:38;3.90;;;1.70;;
19830;SDS011;10076;52.008;4.708;2022-10-16T16:16:07;7.22;;;2.95;;
19830;SDS011;10076;52.008;4.708;2022-10-16T16:18:34;7.53;;;3.03;;
19830;SDS011;10076;52.008;4.708;2022-10-16T16:21:00;10.60;;;3.83;;
19830;SDS011;10076;52.008;4.708;2022-10-16T16:23:25;11.00;;;3.47;;
19830;SDS011;10076;52.008;4.708;2022-10-16T16:26:07;5.57;;;2.67;;
19830;SDS011;10076;52.008;4.708;2022-10-16T16:28:36;8.07;;;3.03;;
19830;SDS011;10076;52.008;4.708;2022-10-16T16:31:02;7.40;;;2.67;;
19830;SDS011;10076;52.008;4.708;2022-10-16T16:33:27;8.35;;;3.60;;
19830;SDS011;10076;52.008;4.708;2022-10-16T16:36:00;19.00;;;12.23;;
19830;SDS011;10076;52.008;4.708;2022-10-16T16:38:27;14.73;;;7.22;;
19830;SDS011;10076;52.008;4.708;2022-10-16T16:40:54;14.38;;;5.05;;
19830;SDS011;10076;52.008;4.708;2022-10-16T16:43:23;9.43;;;3.97;;
19830;SDS011;10076;52.008;4.708;2022-10-16T16:45:49;7.78;;;3.47;;